Archival Weather

Komakuk Beach

Komakuk Beach, Canada (CWKM)

Report from: Saturday, April 1, 2023 2:00 PM UTC
Current time: Tuesday, July 16, 2024 3:35 PM UTC

Current weather – Weather history – Daily summaries
Weather forecast

Present weatherSM
Temperature-18.0°C (-0.4°F)
Wind chill-31.0°C (-23.8°F)
Dew point-21.0°C (-5.8°F)
Winds 20 kts (10.3 m/s, 23 mph) East (100°)
Visibility0 ft. (0 m)
Clouds Sky clear
Altimeter29.89 in.Hg (1012 mB)
Relative humidity77 %
Density altitude-4,145 ft. (-1,264 m)
Remarks Fully automated report
No clouds detected
Flight conditions Low Instrument Meteorological Conditions
Raw dataCWKM 011400Z AUTO 10020KT ////SM NCD M18/M21 A2989
An error has occurred. This application may no longer respond until reloaded. Reload 🗙